sensor_id;sensor_type;location;lat;lon;timestamp;temperature;humidity
46752;DHT22;32497;48.936;9.270;2023-01-16T00:04:45;2.70;78.10
46752;DHT22;32497;48.936;9.270;2023-01-16T00:09:46;2.60;77.90
46752;DHT22;32497;48.936;9.270;2023-01-16T00:14:47;2.80;77.40
46752;DHT22;32497;48.936;9.270;2023-01-16T00:19:49;2.90;77.30
46752;DHT22;32497;48.936;9.270;2023-01-16T00:24:50;3.00;76.90
46752;DHT22;32497;48.936;9.270;2023-01-16T00:29:51;3.00;77.00
46752;DHT22;32497;48.936;9.270;2023-01-16T00:34:54;3.10;77.20
46752;DHT22;32497;48.936;9.270;2023-01-16T00:39:55;3.10;76.80
46752;DHT22;32497;48.936;9.270;2023-01-16T00:44:56;3.10;76.50
46752;DHT22;32497;48.936;9.270;2023-01-16T00:49:58;3.20;75.70
46752;DHT22;32497;48.936;9.270;2023-01-16T00:54:59;3.20;76.10
46752;DHT22;32497;48.936;9.270;2023-01-16T01:00:00;3.20;75.90
46752;DHT22;32497;48.936;9.270;2023-01-16T01:05:03;3.20;76.20
46752;DHT22;32497;48.936;9.270;2023-01-16T01:10:05;3.20;76.10
46752;DHT22;32497;48.936;9.270;2023-01-16T01:15:07;3.30;75.60
46752;DHT22;32497;48.936;9.270;2023-01-16T01:20:10;3.30;75.50
46752;DHT22;32497;48.936;9.270;2023-01-16T01:25:12;3.30;75.60
46752;DHT22;32497;48.936;9.270;2023-01-16T01:30:13;3.10;75.90
46752;DHT22;32497;48.936;9.270;2023-01-16T01:35:16;3.00;76.40
46752;DHT22;32497;48.936;9.270;2023-01-16T01:40:17;3.10;75.60
46752;DHT22;32497;48.936;9.270;2023-01-16T01:45:20;3.20;75.10
46752;DHT22;32497;48.936;9.270;2023-01-16T01:50:32;3.10;75.30
46752;DHT22;32497;48.936;9.270;2023-01-16T01:55:34;2.90;76.00
46752;DHT22;32497;48.936;9.270;2023-01-16T02:00:36;2.80;76.60
46752;DHT22;32497;48.936;9.270;2023-01-16T02:05:42;2.70;77.60
46752;DHT22;32497;48.936;9.270;2023-01-16T02:10:47;2.60;77.40
46752;DHT22;32497;48.936;9.270;2023-01-16T02:15:50;2.60;77.70
46752;DHT22;32497;48.936;9.270;2023-01-16T02:21:04;2.40;77.70
46752;DHT22;32497;48.936;9.270;2023-01-16T02:26:31;2.20;78.50
46752;DHT22;32497;48.936;9.270;2023-01-16T02:31:48;2.00;79.10
46752;DHT22;32497;48.936;9.270;2023-01-16T02:36:56;1.90;79.90
46752;DHT22;32497;48.936;9.270;2023-01-16T02:42:06;1.80;79.90
46752;DHT22;32497;48.936;9.270;2023-01-16T02:47:16;1.80;80.60
46752;DHT22;32497;48.936;9.270;2023-01-16T02:52:23;1.60;81.20
46752;DHT22;32497;48.936;9.270;2023-01-16T02:57:32;1.50;81.80
46752;DHT22;32497;48.936;9.270;2023-01-16T03:02:36;1.60;81.50
46752;DHT22;32497;48.936;9.270;2023-01-16T03:07:51;1.70;81.10
46752;DHT22;32497;48.936;9.270;2023-01-16T03:13:03;1.70;81.10
46752;DHT22;32497;48.936;9.270;2023-01-16T03:18:13;1.80;80.40
46752;DHT22;32497;48.936;9.270;2023-01-16T03:23:23;1.90;80.30
46752;DHT22;32497;48.936;9.270;2023-01-16T03:28:33;1.90;80.50
46752;DHT22;32497;48.936;9.270;2023-01-16T03:33:41;2.10;80.10
46752;DHT22;32497;48.936;9.270;2023-01-16T03:38:44;2.20;79.80
46752;DHT22;32497;48.936;9.270;2023-01-16T03:43:50;2.30;79.80
46752;DHT22;32497;48.936;9.270;2023-01-16T03:48:56;2.40;78.80
46752;DHT22;32497;48.936;9.270;2023-01-16T03:54:02;2.40;78.80
46752;DHT22;32497;48.936;9.270;2023-01-16T03:59:06;2.20;79.50
46752;DHT22;32497;48.936;9.270;2023-01-16T04:04:12;2.10;80.30
46752;DHT22;32497;48.936;9.270;2023-01-16T04:09:21;1.80;80.50
46752;DHT22;32497;48.936;9.270;2023-01-16T04:14:25;1.70;80.90
46752;DHT22;32497;48.936;9.270;2023-01-16T04:19:28;1.60;81.30
46752;DHT22;32497;48.936;9.270;2023-01-16T04:24:31;1.50;81.40
46752;DHT22;32497;48.936;9.270;2023-01-16T04:29:32;1.30;81.80
46752;DHT22;32497;48.936;9.270;2023-01-16T04:34:35;1.20;82.20
46752;DHT22;32497;48.936;9.270;2023-01-16T04:39:36;1.10;82.30
46752;DHT22;32497;48.936;9.270;2023-01-16T04:44:37;1.10;82.60
46752;DHT22;32497;48.936;9.270;2023-01-16T04:49:39;1.10;82.50
46752;DHT22;32497;48.936;9.270;2023-01-16T04:54:41;1.10;82.30
46752;DHT22;32497;48.936;9.270;2023-01-16T04:59:42;1.10;82.40
46752;DHT22;32497;48.936;9.270;2023-01-16T05:04:45;1.10;82.40
46752;DHT22;32497;48.936;9.270;2023-01-16T05:09:46;1.10;81.90
46752;DHT22;32497;48.936;9.270;2023-01-16T05:14:47;1.10;81.70
46752;DHT22;32497;48.936;9.270;2023-01-16T05:19:49;1.10;81.50
46752;DHT22;32497;48.936;9.270;2023-01-16T05:24:50;1.20;81.20
46752;DHT22;32497;48.936;9.270;2023-01-16T05:29:51;1.40;80.60
46752;DHT22;32497;48.936;9.270;2023-01-16T05:34:54;1.60;79.80
46752;DHT22;32497;48.936;9.270;2023-01-16T05:39:55;1.70;79.20
46752;DHT22;32497;48.936;9.270;2023-01-16T05:44:56;1.70;78.90
46752;DHT22;32497;48.936;9.270;2023-01-16T05:49:59;1.80;78.60
46752;DHT22;32497;48.936;9.270;2023-01-16T05:55:00;1.90;78.30
46752;DHT22;32497;48.936;9.270;2023-01-16T06:00:02;2.10;77.60
46752;DHT22;32497;48.936;9.270;2023-01-16T06:05:08;2.10;77.80
46752;DHT22;32497;48.936;9.270;2023-01-16T06:10:10;2.10;77.80
46752;DHT22;32497;48.936;9.270;2023-01-16T06:15:11;2.20;77.10
46752;DHT22;32497;48.936;9.270;2023-01-16T06:20:13;2.20;76.50
46752;DHT22;32497;48.936;9.270;2023-01-16T06:25:15;2.30;76.00
46752;DHT22;32497;48.936;9.270;2023-01-16T06:30:16;2.30;76.40
46752;DHT22;32497;48.936;9.270;2023-01-16T06:35:19;2.10;77.20
46752;DHT22;32497;48.936;9.270;2023-01-16T06:40:20;2.00;77.60
46752;DHT22;32497;48.936;9.270;2023-01-16T06:45:21;2.00;78.20
46752;DHT22;32497;48.936;9.270;2023-01-16T06:50:24;2.10;77.30
46752;DHT22;32497;48.936;9.270;2023-01-16T06:55:25;2.30;76.30
46752;DHT22;32497;48.936;9.270;2023-01-16T07:00:26;2.40;75.80
46752;DHT22;32497;48.936;9.270;2023-01-16T07:05:29;2.50;75.40
46752;DHT22;32497;48.936;9.270;2023-01-16T07:10:31;2.40;75.50
46752;DHT22;32497;48.936;9.270;2023-01-16T07:15:32;2.30;76.40
46752;DHT22;32497;48.936;9.270;2023-01-16T07:20:35;2.20;76.50
46752;DHT22;32497;48.936;9.270;2023-01-16T07:25:36;2.10;77.10
46752;DHT22;32497;48.936;9.270;2023-01-16T07:30:37;2.10;77.10
46752;DHT22;32497;48.936;9.270;2023-01-16T07:35:40;2.10;77.20
46752;DHT22;32497;48.936;9.270;2023-01-16T07:40:41;2.10;77.40
46752;DHT22;32497;48.936;9.270;2023-01-16T07:45:42;2.10;77.50
46752;DHT22;32497;48.936;9.270;2023-01-16T07:50:50;2.10;78.10
46752;DHT22;32497;48.936;9.270;2023-01-16T07:55:53;2.20;77.50
46752;DHT22;32497;48.936;9.270;2023-01-16T08:00:55;2.20;77.30
46752;DHT22;32497;48.936;9.270;2023-01-16T08:05:58;2.30;76.90
46752;DHT22;32497;48.936;9.270;2023-01-16T08:11:00;2.40;76.40
46752;DHT22;32497;48.936;9.270;2023-01-16T08:16:01;2.50;76.30
46752;DHT22;32497;48.936;9.270;2023-01-16T08:21:04;2.60;75.40
46752;DHT22;32497;48.936;9.270;2023-01-16T08:26:05;2.70;74.60
46752;DHT22;32497;48.936;9.270;2023-01-16T08:31:08;2.80;73.50
46752;DHT22;32497;48.936;9.270;2023-01-16T08:36:11;3.00;72.80
46752;DHT22;32497;48.936;9.270;2023-01-16T08:41:13;3.20;73.10
46752;DHT22;32497;48.936;9.270;2023-01-16T08:46:19;3.40;71.20
46752;DHT22;32497;48.936;9.270;2023-01-16T08:51:22;3.60;70.80
46752;DHT22;32497;48.936;9.270;2023-01-16T08:56:23;3.70;71.50
46752;DHT22;32497;48.936;9.270;2023-01-16T09:01:24;3.70;71.30
46752;DHT22;32497;48.936;9.270;2023-01-16T09:06:27;3.80;71.00
46752;DHT22;32497;48.936;9.270;2023-01-16T09:11:28;3.90;70.00
46752;DHT22;32497;48.936;9.270;2023-01-16T09:16:29;3.90;70.20
46752;DHT22;32497;48.936;9.270;2023-01-16T09:21:31;4.00;69.50
46752;DHT22;32497;48.936;9.270;2023-01-16T09:26:32;4.10;69.00
46752;DHT22;32497;48.936;9.270;2023-01-16T09:31:33;4.10;67.30
46752;DHT22;32497;48.936;9.270;2023-01-16T09:36:36;4.30;66.70
46752;DHT22;32497;48.936;9.270;2023-01-16T09:41:47;4.30;67.10
46752;DHT22;32497;48.936;9.270;2023-01-16T09:46:51;4.40;66.90
46752;DHT22;32497;48.936;9.270;2023-01-16T09:51:58;4.40;66.70
46752;DHT22;32497;48.936;9.270;2023-01-16T09:57:02;4.50;65.00
46752;DHT22;32497;48.936;9.270;2023-01-16T10:02:19;4.70;64.10
46752;DHT22;32497;48.936;9.270;2023-01-16T10:07:35;4.90;63.00
46752;DHT22;32497;48.936;9.270;2023-01-16T10:12:38;5.10;62.50
46752;DHT22;32497;48.936;9.270;2023-01-16T10:17:48;5.10;62.00
46752;DHT22;32497;48.936;9.270;2023-01-16T10:23:06;5.10;61.20
46752;DHT22;32497;48.936;9.270;2023-01-16T10:28:19;5.20;59.80
46752;DHT22;32497;48.936;9.270;2023-01-16T10:33:28;5.30;57.90
46752;DHT22;32497;48.936;9.270;2023-01-16T10:38:35;5.40;57.70
46752;DHT22;32497;48.936;9.270;2023-01-16T10:43:39;5.50;56.50
46752;DHT22;32497;48.936;9.270;2023-01-16T10:48:41;5.40;57.70
46752;DHT22;32497;48.936;9.270;2023-01-16T10:53:44;5.50;58.00
46752;DHT22;32497;48.936;9.270;2023-01-16T10:58:45;5.50;56.60
46752;DHT22;32497;48.936;9.270;2023-01-16T11:03:47;5.60;57.60
46752;DHT22;32497;48.936;9.270;2023-01-16T11:08:53;5.90;57.50
46752;DHT22;32497;48.936;9.270;2023-01-16T11:13:55;5.90;60.30
46752;DHT22;32497;48.936;9.270;2023-01-16T11:18:56;5.90;62.40
46752;DHT22;32497;48.936;9.270;2023-01-16T11:24:01;5.80;64.40
46752;DHT22;32497;48.936;9.270;2023-01-16T11:29:03;5.60;65.40
46752;DHT22;32497;48.936;9.270;2023-01-16T11:34:11;5.60;65.40
46752;DHT22;32497;48.936;9.270;2023-01-16T11:39:18;5.60;65.70
46752;DHT22;32497;48.936;9.270;2023-01-16T11:44:22;5.60;68.50
46752;DHT22;32497;48.936;9.270;2023-01-16T11:49:25;5.60;68.90
46752;DHT22;32497;48.936;9.270;2023-01-16T11:54:30;5.80;66.40
46752;DHT22;32497;48.936;9.270;2023-01-16T11:59:56;5.90;65.40
46752;DHT22;32497;48.936;9.270;2023-01-16T12:05:08;5.90;66.00
46752;DHT22;32497;48.936;9.270;2023-01-16T12:10:21;5.90;65.80
46752;DHT22;32497;48.936;9.270;2023-01-16T12:15:29;6.00;66.60
46752;DHT22;32497;48.936;9.270;2023-01-16T12:20:36;6.20;64.40
46752;DHT22;32497;48.936;9.270;2023-01-16T12:25:48;6.20;65.10
46752;DHT22;32497;48.936;9.270;2023-01-16T12:31:07;6.20;65.80
46752;DHT22;32497;48.936;9.270;2023-01-16T12:36:15;6.20;66.00
46752;DHT22;32497;48.936;9.270;2023-01-16T12:41:22;6.30;66.10
46752;DHT22;32497;48.936;9.270;2023-01-16T12:46:32;6.40;66.10
46752;DHT22;32497;48.936;9.270;2023-01-16T12:51:44;6.40;66.80
46752;DHT22;32497;48.936;9.270;2023-01-16T12:57:05;6.50;66.60
46752;DHT22;32497;48.936;9.270;2023-01-16T13:02:18;6.70;65.50
46752;DHT22;32497;48.936;9.270;2023-01-16T13:07:22;7.00;66.00
46752;DHT22;32497;48.936;9.270;2023-01-16T13:12:31;7.20;65.40
46752;DHT22;32497;48.936;9.270;2023-01-16T13:17:42;7.20;64.30
46752;DHT22;32497;48.936;9.270;2023-01-16T13:22:49;7.00;66.00
46752;DHT22;32497;48.936;9.270;2023-01-16T13:27:58;7.10;66.00
46752;DHT22;32497;48.936;9.270;2023-01-16T13:33:03;7.20;65.60
46752;DHT22;32497;48.936;9.270;2023-01-16T13:38:22;7.40;65.40
46752;DHT22;32497;48.936;9.270;2023-01-16T13:43:31;7.70;64.40
46752;DHT22;32497;48.936;9.270;2023-01-16T13:48:34;7.60;64.20
46752;DHT22;32497;48.936;9.270;2023-01-16T13:53:36;7.50;65.60
46752;DHT22;32497;48.936;9.270;2023-01-16T13:58:41;7.90;64.20
46752;DHT22;32497;48.936;9.270;2023-01-16T14:09:23;8.70;61.30
46752;DHT22;32497;48.936;9.270;2023-01-16T14:14:34;8.20;59.90
46752;DHT22;32497;48.936;9.270;2023-01-16T14:19:38;8.40;60.10
46752;DHT22;32497;48.936;9.270;2023-01-16T14:24:43;8.20;60.30
46752;DHT22;32497;48.936;9.270;2023-01-16T14:29:49;7.90;59.00
46752;DHT22;32497;48.936;9.270;2023-01-16T14:34:53;7.60;60.10
46752;DHT22;32497;48.936;9.270;2023-01-16T14:39:57;7.70;61.40
46752;DHT22;32497;48.936;9.270;2023-01-16T14:45:18;8.30;58.30
46752;DHT22;32497;48.936;9.270;2023-01-16T14:50:42;7.90;61.20
46752;DHT22;32497;48.936;9.270;2023-01-16T14:55:47;7.70;61.00
46752;DHT22;32497;48.936;9.270;2023-01-16T15:00:55;7.50;61.50
46752;DHT22;32497;48.936;9.270;2023-01-16T15:05:58;7.20;62.40
46752;DHT22;32497;48.936;9.270;2023-01-16T15:11:06;6.90;63.30
46752;DHT22;32497;48.936;9.270;2023-01-16T15:16:17;6.80;63.90
46752;DHT22;32497;48.936;9.270;2023-01-16T15:21:19;6.80;64.40
46752;DHT22;32497;48.936;9.270;2023-01-16T15:26:40;6.90;64.30
46752;DHT22;32497;48.936;9.270;2023-01-16T15:31:47;6.80;63.50
46752;DHT22;32497;48.936;9.270;2023-01-16T15:36:55;6.70;64.80
46752;DHT22;32497;48.936;9.270;2023-01-16T15:42:00;6.60;65.00
46752;DHT22;32497;48.936;9.270;2023-01-16T15:52:36;6.60;64.90
46752;DHT22;32497;48.936;9.270;2023-01-16T15:57:37;6.40;66.60
46752;DHT22;32497;48.936;9.270;2023-01-16T16:02:42;6.30;67.10
46752;DHT22;32497;48.936;9.270;2023-01-16T16:07:43;6.20;68.70
46752;DHT22;32497;48.936;9.270;2023-01-16T16:12:45;6.10;69.70
46752;DHT22;32497;48.936;9.270;2023-01-16T16:18:00;6.10;70.10
46752;DHT22;32497;48.936;9.270;2023-01-16T16:23:09;5.90;72.20
46752;DHT22;32497;48.936;9.270;2023-01-16T16:28:21;5.80;73.20
46752;DHT22;32497;48.936;9.270;2023-01-16T16:33:24;5.70;75.50
46752;DHT22;32497;48.936;9.270;2023-01-16T16:38:28;5.40;77.20
46752;DHT22;32497;48.936;9.270;2023-01-16T16:43:43;5.30;78.10
46752;DHT22;32497;48.936;9.270;2023-01-16T16:48:46;5.20;78.10
46752;DHT22;32497;48.936;9.270;2023-01-16T16:53:47;5.10;79.40
46752;DHT22;32497;48.936;9.270;2023-01-16T16:58:49;5.00;81.30
46752;DHT22;32497;48.936;9.270;2023-01-16T17:03:55;4.80;82.30
46752;DHT22;32497;48.936;9.270;2023-01-16T17:08:56;4.70;82.50
46752;DHT22;32497;48.936;9.270;2023-01-16T17:13:57;4.60;83.10
46752;DHT22;32497;48.936;9.270;2023-01-16T17:19:03;4.60;83.70
46752;DHT22;32497;48.936;9.270;2023-01-16T17:24:05;4.50;84.70
46752;DHT22;32497;48.936;9.270;2023-01-16T17:29:06;4.50;84.10
46752;DHT22;32497;48.936;9.270;2023-01-16T17:34:12;4.40;84.60
46752;DHT22;32497;48.936;9.270;2023-01-16T17:39:13;4.30;85.40
46752;DHT22;32497;48.936;9.270;2023-01-16T17:44:15;4.30;85.80
46752;DHT22;32497;48.936;9.270;2023-01-16T17:49:18;4.20;85.40
46752;DHT22;32497;48.936;9.270;2023-01-16T17:54:19;4.20;86.00
46752;DHT22;32497;48.936;9.270;2023-01-16T17:59:20;4.20;85.80
46752;DHT22;32497;48.936;9.270;2023-01-16T18:04:22;4.10;85.80
46752;DHT22;32497;48.936;9.270;2023-01-16T18:09:23;4.00;86.20
46752;DHT22;32497;48.936;9.270;2023-01-16T18:14:25;4.00;86.30
46752;DHT22;32497;48.936;9.270;2023-01-16T18:19:27;4.00;85.60
46752;DHT22;32497;48.936;9.270;2023-01-16T18:24:30;4.00;85.70
46752;DHT22;32497;48.936;9.270;2023-01-16T18:29:31;4.00;86.00
46752;DHT22;32497;48.936;9.270;2023-01-16T18:34:34;4.00;85.40
46752;DHT22;32497;48.936;9.270;2023-01-16T18:39:35;4.10;85.20
46752;DHT22;32497;48.936;9.270;2023-01-16T18:44:36;4.00;85.50
46752;DHT22;32497;48.936;9.270;2023-01-16T18:49:38;4.00;85.40
46752;DHT22;32497;48.936;9.270;2023-01-16T18:54:40;4.10;84.50
46752;DHT22;32497;48.936;9.270;2023-01-16T18:59:43;4.10;84.90
46752;DHT22;32497;48.936;9.270;2023-01-16T19:04:46;4.10;85.00
46752;DHT22;32497;48.936;9.270;2023-01-16T19:09:47;4.10;84.10
46752;DHT22;32497;48.936;9.270;2023-01-16T19:14:50;4.10;83.60
46752;DHT22;32497;48.936;9.270;2023-01-16T19:19:53;4.20;82.60
46752;DHT22;32497;48.936;9.270;2023-01-16T19:24:54;4.20;82.70
46752;DHT22;32497;48.936;9.270;2023-01-16T19:29:55;4.30;82.40
46752;DHT22;32497;48.936;9.270;2023-01-16T19:34:57;4.30;82.30
46752;DHT22;32497;48.936;9.270;2023-01-16T19:39:58;4.20;82.90
46752;DHT22;32497;48.936;9.270;2023-01-16T19:44:59;4.10;83.30
46752;DHT22;32497;48.936;9.270;2023-01-16T19:50:02;4.10;83.70
46752;DHT22;32497;48.936;9.270;2023-01-16T19:55:03;4.00;84.40
46752;DHT22;32497;48.936;9.270;2023-01-16T20:00:06;3.80;84.80
46752;DHT22;32497;48.936;9.270;2023-01-16T20:05:14;3.80;84.90
46752;DHT22;32497;48.936;9.270;2023-01-16T20:10:15;3.70;84.20
46752;DHT22;32497;48.936;9.270;2023-01-16T20:15:17;3.70;84.90
46752;DHT22;32497;48.936;9.270;2023-01-16T20:20:19;3.70;84.70
46752;DHT22;32497;48.936;9.270;2023-01-16T20:25:20;3.60;84.50
46752;DHT22;32497;48.936;9.270;2023-01-16T20:30:22;3.70;83.30
46752;DHT22;32497;48.936;9.270;2023-01-16T20:35:24;3.70;83.20
46752;DHT22;32497;48.936;9.270;2023-01-16T20:40:25;3.80;82.90
46752;DHT22;32497;48.936;9.270;2023-01-16T20:45:26;3.70;82.80
46752;DHT22;32497;48.936;9.270;2023-01-16T20:50:29;3.80;82.20
46752;DHT22;32497;48.936;9.270;2023-01-16T20:55:30;3.90;81.10
46752;DHT22;32497;48.936;9.270;2023-01-16T21:00:32;3.80;80.60
46752;DHT22;32497;48.936;9.270;2023-01-16T21:05:34;3.90;80.50
46752;DHT22;32497;48.936;9.270;2023-01-16T21:10:35;3.90;79.70
46752;DHT22;32497;48.936;9.270;2023-01-16T21:15:36;4.00;78.40
46752;DHT22;32497;48.936;9.270;2023-01-16T21:20:39;4.10;77.20
46752;DHT22;32497;48.936;9.270;2023-01-16T21:25:40;4.10;75.90
46752;DHT22;32497;48.936;9.270;2023-01-16T21:30:41;4.10;74.70
46752;DHT22;32497;48.936;9.270;2023-01-16T21:35:43;4.20;74.70
46752;DHT22;32497;48.936;9.270;2023-01-16T21:40:44;4.20;74.30
46752;DHT22;32497;48.936;9.270;2023-01-16T21:45:45;4.10;73.80
46752;DHT22;32497;48.936;9.270;2023-01-16T21:50:50;4.10;74.30
46752;DHT22;32497;48.936;9.270;2023-01-16T21:55:52;4.20;73.00
46752;DHT22;32497;48.936;9.270;2023-01-16T22:00:53;4.20;73.70
46752;DHT22;32497;48.936;9.270;2023-01-16T22:05:56;4.10;75.00
46752;DHT22;32497;48.936;9.270;2023-01-16T22:10:57;4.00;75.80
46752;DHT22;32497;48.936;9.270;2023-01-16T22:15:58;3.90;77.20
46752;DHT22;32497;48.936;9.270;2023-01-16T22:21:00;3.90;77.80
46752;DHT22;32497;48.936;9.270;2023-01-16T22:26:02;3.80;78.50
46752;DHT22;32497;48.936;9.270;2023-01-16T22:31:04;3.80;78.90
46752;DHT22;32497;48.936;9.270;2023-01-16T22:36:08;3.80;78.90
46752;DHT22;32497;48.936;9.270;2023-01-16T22:41:12;3.80;78.90
46752;DHT22;32497;48.936;9.270;2023-01-16T22:46:16;3.80;79.40
46752;DHT22;32497;48.936;9.270;2023-01-16T22:51:19;3.80;79.70
46752;DHT22;32497;48.936;9.270;2023-01-16T22:56:20;3.70;79.70
46752;DHT22;32497;48.936;9.270;2023-01-16T23:01:22;3.50;80.50
46752;DHT22;32497;48.936;9.270;2023-01-16T23:06:26;3.20;82.20
46752;DHT22;32497;48.936;9.270;2023-01-16T23:11:29;3.30;82.60
46752;DHT22;32497;48.936;9.270;2023-01-16T23:16:33;3.30;83.00
46752;DHT22;32497;48.936;9.270;2023-01-16T23:21:36;3.10;83.80
46752;DHT22;32497;48.936;9.270;2023-01-16T23:26:37;2.90;85.20
46752;DHT22;32497;48.936;9.270;2023-01-16T23:31:40;2.70;85.50
46752;DHT22;32497;48.936;9.270;2023-01-16T23:36:43;2.50;86.50
46752;DHT22;32497;48.936;9.270;2023-01-16T23:41:44;2.30;86.60
46752;DHT22;32497;48.936;9.270;2023-01-16T23:46:45;2.20;86.00
46752;DHT22;32497;48.936;9.270;2023-01-16T23:51:47;2.20;84.80
46752;DHT22;32497;48.936;9.270;2023-01-16T23:56:48;2.20;84.50
